createdAt,value
2023-11-04T00:02:34.110Z,18.39
2023-11-04T00:07:37.098Z,18.40
2023-11-04T00:12:39.900Z,18.52
2023-11-04T00:17:42.688Z,18.48
2023-11-04T00:22:45.443Z,18.48
2023-11-04T00:27:48.391Z,18.67
2023-11-04T00:32:51.286Z,18.69
2023-11-04T00:37:53.983Z,18.62
2023-11-04T00:42:56.841Z,18.72
2023-11-04T00:48:01.151Z,18.20
2023-11-04T00:53:03.478Z,17.05
2023-11-04T00:58:06.434Z,16.41
2023-11-04T01:03:09.252Z,16.05
2023-11-04T01:08:12.053Z,15.91
2023-11-04T01:13:14.451Z,16.07
2023-11-04T01:18:17.240Z,15.87
2023-11-04T01:23:19.928Z,16.04
2023-11-04T01:28:22.759Z,15.68
2023-11-04T01:33:28.507Z,15.51
2023-11-04T01:38:32.632Z,15.44
2023-11-04T01:43:35.403Z,15.37
2023-11-04T01:48:38.604Z,15.54
2023-11-04T01:53:45.138Z,16.40
2023-11-04T01:58:48.869Z,16.83
2023-11-04T02:03:53.174Z,16.76
2023-11-04T02:08:59.554Z,17.00
2023-11-04T02:14:02.418Z,17.21
2023-11-04T02:19:06.596Z,16.76
2023-11-04T02:24:10.525Z,16.88
2023-11-04T02:29:13.085Z,16.98
2023-11-04T02:34:15.833Z,16.89
2023-11-04T02:39:20.516Z,17.03
2023-11-04T02:44:23.025Z,16.84
2023-11-04T02:49:26.344Z,16.59
2023-11-04T02:54:29.826Z,16.32
2023-11-04T02:59:33.608Z,15.93
2023-11-04T03:04:39.374Z,16.44
2023-11-04T03:09:42.264Z,17.14
2023-11-04T03:14:47.375Z,17.50
2023-11-04T03:19:50.172Z,17.51
2023-11-04T03:24:53.114Z,17.37
2023-11-04T03:29:55.933Z,17.08
2023-11-04T03:34:58.206Z,16.44
2023-11-04T03:40:00.973Z,15.83
2023-11-04T03:45:05.763Z,15.00
2023-11-04T03:50:08.359Z,14.67
2023-11-04T03:55:11.296Z,14.27
2023-11-04T04:00:14.501Z,14.28
2023-11-04T04:05:17.627Z,15.08
2023-11-04T04:10:20.528Z,16.24
2023-11-04T04:15:22.823Z,16.32
2023-11-04T04:20:25.572Z,15.75
2023-11-04T04:25:27.921Z,16.26
2023-11-04T04:30:30.732Z,16.55
2023-11-04T04:35:33.559Z,16.65
2023-11-04T04:40:38.845Z,16.57
2023-11-04T04:45:41.988Z,16.41
2023-11-04T04:50:44.889Z,16.23
2023-11-04T04:55:47.365Z,15.81
2023-11-04T05:00:50.349Z,15.85
2023-11-04T05:05:52.684Z,15.93
2023-11-04T05:10:55.449Z,16.12
2023-11-04T05:15:58.429Z,16.21
2023-11-04T05:21:04.338Z,16.19
2023-11-04T05:26:07.363Z,15.76
2023-11-04T05:31:10.558Z,15.15
2023-11-04T05:36:13.278Z,14.72
2023-11-04T05:41:15.456Z,14.48
2023-11-04T05:46:18.137Z,14.36
2023-11-04T05:51:27.406Z,14.18
2023-11-04T05:56:30.309Z,14.67
2023-11-04T06:01:33.043Z,14.40
2023-11-04T06:06:35.332Z,14.44
2023-11-04T06:11:38.398Z,14.50
2023-11-04T06:16:41.392Z,14.49
2023-11-04T06:21:44.082Z,14.38
2023-11-04T06:26:47.089Z,14.69
2023-11-04T06:31:50.197Z,14.98
2023-11-04T06:36:53.281Z,14.79
2023-11-04T06:41:55.996Z,14.91
2023-11-04T06:46:58.649Z,14.81
2023-11-04T06:52:01.572Z,14.91
2023-11-04T06:57:04.353Z,15.06
2023-11-04T07:02:08.798Z,15.17
2023-11-04T07:07:11.599Z,14.83
2023-11-04T07:12:14.378Z,15.01
2023-11-04T07:17:17.997Z,14.99
2023-11-04T07:22:21.384Z,15.00
2023-11-04T07:27:24.533Z,15.11
2023-11-04T07:32:26.838Z,14.93
2023-11-04T07:37:29.947Z,14.98
2023-11-04T07:42:32.888Z,14.94
2023-11-04T07:47:35.672Z,14.83
2023-11-04T07:52:54.014Z,14.95
2023-11-04T07:58:01.623Z,14.92
2023-11-04T08:03:05.151Z,14.58
2023-11-04T08:08:15.490Z,14.07
2023-11-04T08:13:19.890Z,13.89
2023-11-04T08:18:32.665Z,13.79
2023-11-04T08:23:35.678Z,13.91
2023-11-04T08:28:38.596Z,13.92
2023-11-04T08:33:42.425Z,14.20
2023-11-04T08:38:45.148Z,14.53
2023-11-04T08:43:50.334Z,14.77
2023-11-04T08:48:54.940Z,15.01
2023-11-04T08:53:57.652Z,15.40
2023-11-04T08:59:00.350Z,15.28
2023-11-04T09:04:05.546Z,15.05
2023-11-04T09:09:11.648Z,15.23
2023-11-04T09:14:14.057Z,15.26
2023-11-04T09:19:16.954Z,15.29
2023-11-04T09:24:21.645Z,15.06
2023-11-04T09:29:25.613Z,15.17
2023-11-04T09:34:29.738Z,15.11
2023-11-04T09:39:33.747Z,15.01
2023-11-04T09:44:36.897Z,14.91
2023-11-04T09:49:40.025Z,14.80
2023-11-04T09:55:15.435Z,14.71
2023-11-04T10:00:22.166Z,13.66
2023-11-04T10:05:27.112Z,12.78
2023-11-04T10:10:30.518Z,12.73
2023-11-04T10:15:33.292Z,12.44
2023-11-04T10:20:36.597Z,12.38
2023-11-04T10:25:39.434Z,12.52
2023-11-04T10:30:43.104Z,13.07
2023-11-04T10:35:49.193Z,13.14
2023-11-04T10:40:52.033Z,13.18
2023-11-04T10:46:01.188Z,13.50
2023-11-04T10:51:18.999Z,13.62
2023-11-04T10:56:45.880Z,13.73
2023-11-04T11:01:51.463Z,13.67
2023-11-04T11:06:55.626Z,13.52
2023-11-04T11:12:11.745Z,13.21
2023-11-04T11:17:14.765Z,13.23
2023-11-04T11:22:27.657Z,13.55
2023-11-04T11:27:31.732Z,15.22
2023-11-04T11:32:37.687Z,15.80
2023-11-04T11:37:41.694Z,16.00
2023-11-04T11:42:44.796Z,15.89
2023-11-04T11:47:47.853Z,16.12
2023-11-04T11:52:50.353Z,16.00
2023-11-04T11:57:53.238Z,15.82
2023-11-04T12:02:56.225Z,15.63
2023-11-04T12:07:59.129Z,15.51
2023-11-04T12:13:02.177Z,15.31
2023-11-04T12:18:06.990Z,15.36
2023-11-04T12:23:13.223Z,14.66
2023-11-04T12:28:16.114Z,13.92
2023-11-04T12:33:21.995Z,13.56
2023-11-04T12:38:25.152Z,13.61
2023-11-04T12:43:29.385Z,13.55
2023-11-04T12:48:33.204Z,13.38
2023-11-04T12:53:36.123Z,13.42
2023-11-04T12:58:39.891Z,13.41
2023-11-04T13:03:43.033Z,13.36
2023-11-04T13:08:45.940Z,13.30
2023-11-04T13:13:48.083Z,13.26
2023-11-04T13:18:51.783Z,13.30
2023-11-04T13:23:54.493Z,13.26
2023-11-04T13:28:57.372Z,13.32
2023-11-04T13:33:59.754Z,13.43
2023-11-04T13:39:10.252Z,13.70
2023-11-04T13:44:16.037Z,13.94
2023-11-04T13:49:19.030Z,14.13
2023-11-04T13:54:21.389Z,14.39
2023-11-04T13:59:24.079Z,14.47
2023-11-04T14:04:34.265Z,14.66
2023-11-04T14:09:37.382Z,14.72
2023-11-04T14:14:40.048Z,14.71
2023-11-04T14:19:45.319Z,14.92
2023-11-04T14:24:47.799Z,14.84
2023-11-04T14:29:50.078Z,14.40
2023-11-04T14:34:52.974Z,14.10
2023-11-04T14:39:57.854Z,13.78
2023-11-04T14:45:01.786Z,13.72
2023-11-04T14:50:05.908Z,13.60
2023-11-04T14:55:08.727Z,13.50
2023-11-04T15:00:13.458Z,13.69
2023-11-04T15:05:16.346Z,14.06
2023-11-04T15:10:18.804Z,13.91
2023-11-04T15:15:21.615Z,13.91
2023-11-04T15:20:24.265Z,13.87
2023-11-04T15:25:27.071Z,13.95
2023-11-04T15:30:30.051Z,14.03
2023-11-04T15:35:32.531Z,13.99
2023-11-04T15:40:35.527Z,13.90
2023-11-04T15:45:39.156Z,13.75
2023-11-04T15:50:41.464Z,14.21
2023-11-04T15:55:43.702Z,14.32
2023-11-04T16:00:46.425Z,13.79
2023-11-04T16:05:49.145Z,13.92
2023-11-04T16:10:51.952Z,13.70
2023-11-04T16:15:54.844Z,13.58
2023-11-04T16:20:57.125Z,12.91
2023-11-04T16:26:00.128Z,13.18
2023-11-04T16:31:04.950Z,13.20
2023-11-04T16:36:07.768Z,12.74
2023-11-04T16:41:11.282Z,12.70
2023-11-04T16:46:14.434Z,12.59
2023-11-04T16:51:17.149Z,12.86
2023-11-04T16:56:20.321Z,12.81
2023-11-04T17:01:23.204Z,12.47
2023-11-04T17:06:25.496Z,12.11
2023-11-04T17:11:30.710Z,11.55
2023-11-04T17:16:33.721Z,11.29
2023-11-04T17:21:36.829Z,10.73
2023-11-04T17:26:39.596Z,10.70
2023-11-04T17:31:42.459Z,10.25
2023-11-04T17:36:45.112Z,10.06
2023-11-04T17:41:47.930Z,9.80
2023-11-04T17:46:50.980Z,9.90
2023-11-04T17:51:55.258Z,9.51
2023-11-04T17:56:58.027Z,9.73
2023-11-04T18:02:02.448Z,9.64
2023-11-04T18:07:05.364Z,9.48
2023-11-04T18:12:08.838Z,9.65
2023-11-04T18:17:11.482Z,9.51
2023-11-04T18:22:14.200Z,9.65
2023-11-04T18:27:19.053Z,9.46
2023-11-04T18:32:25.102Z,9.36
2023-11-04T18:37:27.779Z,9.35
2023-11-04T18:42:30.482Z,8.95
2023-11-04T18:47:34.813Z,8.97
2023-11-04T18:52:38.764Z,9.00
2023-11-04T18:57:41.183Z,8.98
2023-11-04T19:02:45.179Z,9.08
2023-11-04T19:07:47.917Z,8.95
2023-11-04T19:12:50.529Z,8.89
2023-11-04T19:17:53.425Z,8.84
2023-11-04T19:22:55.934Z,8.71
2023-11-04T19:27:58.302Z,8.59
2023-11-04T19:33:01.202Z,8.34
2023-11-04T19:38:03.892Z,8.46
2023-11-04T19:43:06.758Z,8.25
2023-11-04T19:48:09.547Z,8.30
2023-11-04T19:53:12.933Z,8.17
2023-11-04T19:58:15.283Z,8.19
2023-11-04T20:03:18.077Z,8.21
2023-11-04T20:08:20.800Z,7.88
2023-11-04T20:13:23.577Z,7.86
2023-11-04T20:18:25.879Z,8.03
2023-11-04T20:23:28.111Z,7.76
2023-11-04T20:28:31.309Z,7.67
2023-11-04T20:33:33.762Z,7.69
2023-11-04T20:38:36.026Z,7.47
2023-11-04T20:43:38.916Z,7.33
2023-11-04T20:48:41.529Z,7.43
2023-11-04T20:53:44.306Z,7.32
2023-11-04T20:58:46.615Z,7.15
2023-11-04T21:03:49.587Z,7.14
2023-11-04T21:15:17.312Z,6.95
2023-11-04T21:20:20.936Z,6.90
2023-11-04T21:25:23.739Z,6.92
2023-11-04T21:30:26.423Z,6.79
2023-11-04T21:35:29.101Z,6.89
2023-11-04T21:40:31.907Z,6.60
2023-11-04T21:45:35.474Z,6.75
2023-11-04T21:50:38.264Z,6.73
2023-11-04T21:55:40.949Z,6.78
2023-11-04T22:00:43.783Z,6.60
2023-11-04T22:05:46.046Z,6.56
2023-11-04T22:10:48.770Z,6.39
2023-11-04T22:15:51.418Z,6.32
2023-11-04T22:20:54.183Z,6.38
2023-11-04T22:25:56.504Z,6.26
2023-11-04T22:30:58.745Z,6.38
2023-11-04T22:36:01.612Z,6.28
2023-11-04T22:41:04.609Z,6.16
2023-11-04T22:46:07.394Z,5.92
2023-11-04T22:51:11.835Z,6.07
2023-11-04T22:56:14.739Z,5.97
2023-11-04T23:01:19.492Z,5.93
2023-11-04T23:06:22.222Z,6.03
2023-11-04T23:11:24.879Z,6.01
2023-11-04T23:16:27.570Z,5.83
2023-11-04T23:21:29.932Z,5.90
2023-11-04T23:26:32.647Z,5.59
2023-11-04T23:31:35.471Z,5.63
2023-11-04T23:36:42.256Z,5.63
2023-11-04T23:41:45.153Z,5.79
2023-11-04T23:46:47.901Z,5.48
2023-11-04T23:51:50.549Z,5.46
2023-11-04T23:56:54.585Z,5.44
